Terminal Aerodrome Forecast
Issued by NWS Caribou, ME

Home | Current Version | Previous Version | Text Only | Print | Product List | Glossary On
Versions: 1 2 3 4 5 6 7 8 9 10 11 12 13 14 15 16
393
FTUS41 KCAR 051134
TAFBGR
TAF
KBGR 051134Z 0512/0612 00000KT P6SM BKN250
     FM051700 16004KT 5SM -SN OVC025
     FM051900 09004KT 2SM -SN SCT008 OVC015
     FM060300 36004KT 4SM -SN BKN015
     FM060500 35005KT P6SM BKN025
     FM060700 34005KT P6SM BKN050=

USA.gov is the U.S. government's official web portal to all federal, state and local government web resources and services.